Chickasha, OK

11:07 PM CST on December 09, 2019 (GMT -0600)
Chickasha Municipal

Weather History for KCHK - November, 2019

Change the Weather History Date:

Sunday, November 17, 2019

  Actual Average Record
Temperature  
Mean Temperature 48 °F -  
Max Temperature 63 °F 61 °F 82 °F (2017)
Min Temperature 34 °F 38 °F 12 °F (1959)
Degree Days  
Heating Degree Days 16    
Moisture  
Dew Point 34 °F    
Average Humidity 61    
Maximum Humidity 89    
Minimum Humidity 33    
Precipitation  
Precipitation 0.00 in - - ()
Sea Level Pressure  
Sea Level Pressure 30.02 in    
Wind  
Wind Speed 10 mph (North)    
Max Wind Speed 25 mph    
Max Gust Speed 29 mph    
Visibility 10 miles    
Events      
Averages and records for this station are not official NWS values.
T = Trace of Precipitation, MM = Missing Value Source: NWS Daily Summary

Daily Weather History Graph

Daily Weather History Graph

Search for Another Location

Airport or City:

Astronomy

Nov. 17, 2019 Rise Set
Actual Time 7:08 AM CST 5:24 PM CST
Civil Twilight 6:41 AM CST 5:52 PM CST
Nautical Twilight 6:10 AM CST 6:22 PM CST
Astronomical Twilight 5:40 AM CST 6:52 PM CST
Moon 10:05 PM CST (11/17) 11:52 AM CST (11/17)
Length of Visible Light 11h 10m
Length of Day
10h 16m
Waning Gibbous, 73% of the Moon is Illuminated
Nov 17
Waning Gibbous
Nov 19
Last Quarter
Nov 26
New
Dec 4
First Quarter
Dec 11
Full

Hourly Weather History & Observations

Time (CST) Temp. Windchill Dew Point Humidity Pressure Visibility Wind Dir Wind Speed Gust Speed Precip Events Conditions
12:15 AM 45.3 °F 40.6 °F 33.8 °F 64% 30.00 in 10.0 mi SE 9.2 mph - N/A   Clear
12:35 AM 45.3 °F 41.1 °F 33.6 °F 64% 30.01 in 10.0 mi SE 8.1 mph - N/A   Clear
12:55 AM 45.1 °F 40.8 °F 33.6 °F 64% 30.00 in 10.0 mi SE 8.1 mph - N/A   Clear
1:15 AM 44.8 °F 39.9 °F 33.6 °F 65% 29.99 in 10.0 mi SE 9.2 mph - N/A   Clear
1:35 AM 44.8 °F 40.4 °F 33.8 °F 65% 29.99 in 10.0 mi SE 8.1 mph - N/A   Clear
1:55 AM 44.6 °F 40.2 °F 33.8 °F 66% 29.99 in 10.0 mi ESE 8.1 mph - N/A   Clear
2:15 AM 44.2 °F 39.7 °F 33.6 °F 66% 29.99 in 10.0 mi ESE 8.1 mph - N/A   Clear
2:55 AM 43.5 °F 38.9 °F 33.6 °F 68% 29.98 in 10.0 mi ESE 8.1 mph - N/A   Clear
3:15 AM 43.2 °F 39.0 °F 33.3 °F 68% 29.97 in 10.0 mi ESE 6.9 mph - N/A   Clear
3:35 AM 42.6 °F 39.0 °F 33.4 °F 70% 29.98 in 10.0 mi SE 5.8 mph - N/A   Clear
3:55 AM 42.6 °F 39.0 °F 33.6 °F 70% 29.98 in 10.0 mi SE 5.8 mph - N/A   Clear
4:35 AM 42.6 °F - 33.6 °F 70% 30.00 in 10.0 mi Calm Calm - N/A   Clear
4:55 AM 41.4 °F 38.4 °F 34.3 °F 76% 30.02 in 10.0 mi NW 4.6 mph - N/A   Clear
5:15 AM 41.2 °F 38.2 °F 34.7 °F 78% 30.02 in 10.0 mi NNW 4.6 mph - N/A   Clear
5:35 AM 41.0 °F 39.0 °F 35.1 °F 79% 30.01 in 10.0 mi North 3.5 mph - N/A   Clear
5:55 AM 41.5 °F 38.6 °F 34.5 °F 76% 30.02 in 10.0 mi NNE 4.6 mph - N/A   Clear
6:15 AM 41.0 °F - 35.1 °F 79% 30.02 in 10.0 mi Calm Calm - N/A   Clear
6:35 AM 40.6 °F - 35.4 °F 82% 30.03 in 10.0 mi Calm Calm - N/A   Clear
7:15 AM 39.2 °F 37.0 °F 34.9 °F 84% 30.03 in 10.0 mi WNW 3.5 mph - N/A   Clear
7:35 AM 37.8 °F 32.5 °F 34.7 °F 89% 30.05 in 10.0 mi WNW 6.9 mph - N/A   Clear
7:55 AM 37.9 °F 34.4 °F 34.0 °F 86% 30.04 in 10.0 mi NNE 4.6 mph - N/A   Clear
8:55 AM 47.7 °F - 37.2 °F 67% 30.06 in 10.0 mi North 8.1 mph - N/A   Clear
9:15 AM 50.2 °F - 37.8 °F 62% 30.06 in 10.0 mi North 13.8 mph - N/A   Clear
9:35 AM 52.9 °F - 37.6 °F 56% 30.06 in 10.0 mi North 19.6 mph 23.0 mph N/A   Clear
9:55 AM 53.8 °F - 37.6 °F 54% 30.06 in 10.0 mi North 20.7 mph 27.6 mph N/A   Clear
10:15 AM 55.4 °F - 37.9 °F 52% 30.06 in 10.0 mi North 25.3 mph - N/A   Clear
10:35 AM 56.7 °F - 38.7 °F 51% 30.06 in 10.0 mi North 20.7 mph - N/A   Clear
10:55 AM 57.7 °F - 38.5 °F 49% 30.06 in 10.0 mi North 21.9 mph 28.8 mph N/A   Clear
11:15 AM 58.6 °F - 38.1 °F 46% 30.05 in 10.0 mi North 21.9 mph - N/A   Clear
11:35 AM 59.2 °F - 37.6 °F 45% 30.05 in 10.0 mi North 24.2 mph - N/A   Clear
11:55 AM 59.9 °F - 37.6 °F 44% 30.05 in 10.0 mi North 25.3 mph - N/A   Clear
12:15 PM 60.8 °F - 37.4 °F 42% 30.04 in 10.0 mi North 21.9 mph - N/A   Clear
12:35 PM 61.7 °F - 37.2 °F 40% 30.03 in 10.0 mi North 23.0 mph 27.6 mph N/A   Clear
1:35 PM 62.6 °F - 36.5 °F 38% 30.01 in 10.0 mi North 23.0 mph - N/A   Clear
1:55 PM 62.4 °F - 35.4 °F 37% 30.00 in 10.0 mi North 19.6 mph - N/A   Clear
2:15 PM 63.3 °F - 35.2 °F 35% 30.00 in 10.0 mi North 20.7 mph - N/A   Clear
2:35 PM 63.3 °F - 35.6 °F 36% 30.00 in 10.0 mi North 18.4 mph 23.0 mph N/A   Clear
2:55 PM 62.8 °F - 35.4 °F 36% 29.99 in 10.0 mi North 15.0 mph - N/A   Clear
3:15 PM 62.6 °F - 35.2 °F 36% 29.99 in 10.0 mi North 17.3 mph 21.9 mph N/A   Clear
3:35 PM 62.1 °F - 34.3 °F 35% 29.99 in 10.0 mi NNW 15.0 mph 21.9 mph N/A   Clear
3:55 PM 61.9 °F - 32.7 °F 34% 30.00 in 10.0 mi North 17.3 mph - N/A   Clear
4:15 PM 61.2 °F - 32.0 °F 33% 30.00 in 10.0 mi North 15.0 mph - N/A   Clear
4:35 PM 60.3 °F - 30.9 °F 33% 30.00 in 10.0 mi North 16.1 mph - N/A   Clear
5:35 PM 52.7 °F - 31.1 °F 44% 30.01 in 10.0 mi North 9.2 mph - N/A   Clear
6:15 PM 49.1 °F - 31.6 °F 51% 30.02 in 10.0 mi North 6.9 mph - N/A   Clear
6:35 PM 46.6 °F - 31.5 °F 56% 30.02 in 10.0 mi North 4.6 mph - N/A   Clear
6:55 PM 46.8 °F - 31.3 °F 55% 30.02 in 10.0 mi Calm Calm - N/A   Clear
7:15 PM 47.8 °F - 31.3 °F 53% 30.03 in 10.0 mi West 4.6 mph - N/A   Clear
7:35 PM 41.7 °F 38.0 °F 30.9 °F 66% 30.03 in 10.0 mi West 5.8 mph - N/A   Clear
8:15 PM 40.8 °F 36.9 °F 31.1 °F 68% 30.03 in 10.0 mi West 5.8 mph - N/A   Clear
8:35 PM 41.7 °F 38.0 °F 30.7 °F 65% 30.03 in 10.0 mi WNW 5.8 mph - N/A   Clear
8:55 PM 39.6 °F 36.3 °F 30.6 °F 70% 30.04 in 10.0 mi West 4.6 mph - N/A   Clear
9:15 PM 39.2 °F 35.0 °F 30.7 °F 72% 30.04 in 10.0 mi WNW 5.8 mph - N/A   Clear
9:35 PM 37.6 °F 31.6 °F 30.6 °F 76% 30.04 in 10.0 mi West 8.1 mph - N/A   Clear
10:15 PM 35.8 °F 30.1 °F 30.7 °F 82% 30.03 in 10.0 mi West 6.9 mph - N/A   Clear
10:55 PM 34.9 °F 29.0 °F 30.7 °F 85% 30.02 in 10.0 mi West 6.9 mph - N/A   Clear
11:15 PM 36.0 °F 31.1 °F 30.7 °F 81% 30.01 in 10.0 mi West 5.8 mph - N/A   Clear
11:35 PM 35.2 °F 32.4 °F 30.6 °F 83% 30.00 in 10.0 mi WNW 3.5 mph - N/A   Clear
11:55 PM 35.4 °F 31.5 °F 30.7 °F 83% 30.00 in 10.0 mi WNW 4.6 mph - N/A   Clear